sensor_id;sensor_type;location;lat;lon;timestamp;P1;durP1;ratioP1;P2;durP2;ratioP2
3995;SDS011;2012;49.794;9.722;2024-01-27T00:02:11;3.40;;;1.90;;
3995;SDS011;2012;49.794;9.722;2024-01-27T00:04:38;8.30;;;2.10;;
3995;SDS011;2012;49.794;9.722;2024-01-27T00:07:05;8.73;;;1.90;;
3995;SDS011;2012;49.794;9.722;2024-01-27T00:09:33;8.37;;;2.90;;
3995;SDS011;2012;49.794;9.722;2024-01-27T00:12:00;8.70;;;2.30;;
3995;SDS011;2012;49.794;9.722;2024-01-27T00:14:27;4.93;;;2.03;;
3995;SDS011;2012;49.794;9.722;2024-01-27T00:16:54;7.93;;;2.70;;
3995;SDS011;2012;49.794;9.722;2024-01-27T00:19:21;11.10;;;2.90;;
3995;SDS011;2012;49.794;9.722;2024-01-27T00:21:48;11.30;;;2.43;;
3995;SDS011;2012;49.794;9.722;2024-01-27T00:24:15;11.83;;;2.47;;
3995;SDS011;2012;49.794;9.722;2024-01-27T00:26:42;3.90;;;1.83;;
3995;SDS011;2012;49.794;9.722;2024-01-27T00:29:10;13.90;;;2.50;;
3995;SDS011;2012;49.794;9.722;2024-01-27T00:31:37;6.07;;;2.00;;
3995;SDS011;2012;49.794;9.722;2024-01-27T00:34:03;10.50;;;4.40;;
3995;SDS011;2012;49.794;9.722;2024-01-27T00:36:31;7.63;;;2.70;;
3995;SDS011;2012;49.794;9.722;2024-01-27T00:38:57;7.63;;;2.67;;
3995;SDS011;2012;49.794;9.722;2024-01-27T00:41:24;8.93;;;2.70;;
3995;SDS011;2012;49.794;9.722;2024-01-27T00:43:51;6.00;;;2.57;;
3995;SDS011;2012;49.794;9.722;2024-01-27T00:46:18;10.53;;;3.13;;
3995;SDS011;2012;49.794;9.722;2024-01-27T00:48:45;10.20;;;3.00;;
3995;SDS011;2012;49.794;9.722;2024-01-27T00:51:12;5.57;;;2.90;;
3995;SDS011;2012;49.794;9.722;2024-01-27T00:53:39;5.40;;;2.30;;
3995;SDS011;2012;49.794;9.722;2024-01-27T00:56:07;9.30;;;2.17;;
3995;SDS011;2012;49.794;9.722;2024-01-27T00:58:34;7.07;;;2.37;;
3995;SDS011;2012;49.794;9.722;2024-01-27T01:01:01;5.57;;;2.23;;
3995;SDS011;2012;49.794;9.722;2024-01-27T01:03:28;7.90;;;2.80;;
3995;SDS011;2012;49.794;9.722;2024-01-27T01:05:55;6.47;;;2.50;;
3995;SDS011;2012;49.794;9.722;2024-01-27T01:08:23;7.13;;;2.57;;
3995;SDS011;2012;49.794;9.722;2024-01-27T01:10:50;5.47;;;2.03;;
3995;SDS011;2012;49.794;9.722;2024-01-27T01:13:16;5.83;;;2.10;;
3995;SDS011;2012;49.794;9.722;2024-01-27T01:15:43;8.60;;;2.67;;
3995;SDS011;2012;49.794;9.722;2024-01-27T01:18:10;4.60;;;2.00;;
3995;SDS011;2012;49.794;9.722;2024-01-27T01:20:37;8.63;;;2.30;;
3995;SDS011;2012;49.794;9.722;2024-01-27T01:23:04;6.97;;;2.33;;
3995;SDS011;2012;49.794;9.722;2024-01-27T01:25:31;9.10;;;2.80;;
3995;SDS011;2012;49.794;9.722;2024-01-27T01:27:58;5.30;;;2.33;;
3995;SDS011;2012;49.794;9.722;2024-01-27T01:30:25;3.40;;;2.37;;
3995;SDS011;2012;49.794;9.722;2024-01-27T01:32:52;8.47;;;2.83;;
3995;SDS011;2012;49.794;9.722;2024-01-27T01:35:19;16.37;;;3.03;;
3995;SDS011;2012;49.794;9.722;2024-01-27T01:37:46;7.03;;;2.70;;
3995;SDS011;2012;49.794;9.722;2024-01-27T01:40:14;10.33;;;3.90;;
3995;SDS011;2012;49.794;9.722;2024-01-27T01:42:42;9.00;;;3.30;;
3995;SDS011;2012;49.794;9.722;2024-01-27T01:45:10;11.70;;;3.43;;
3995;SDS011;2012;49.794;9.722;2024-01-27T01:47:39;8.80;;;3.90;;
3995;SDS011;2012;49.794;9.722;2024-01-27T01:50:06;13.70;;;5.20;;
3995;SDS011;2012;49.794;9.722;2024-01-27T01:52:33;11.27;;;4.27;;
3995;SDS011;2012;49.794;9.722;2024-01-27T01:55:00;5.37;;;3.00;;
3995;SDS011;2012;49.794;9.722;2024-01-27T01:57:27;3.90;;;2.30;;
3995;SDS011;2012;49.794;9.722;2024-01-27T01:59:55;4.70;;;2.37;;
3995;SDS011;2012;49.794;9.722;2024-01-27T02:02:21;5.60;;;2.47;;
3995;SDS011;2012;49.794;9.722;2024-01-27T02:04:48;6.03;;;2.50;;
3995;SDS011;2012;49.794;9.722;2024-01-27T02:07:15;7.60;;;2.90;;
3995;SDS011;2012;49.794;9.722;2024-01-27T02:09:42;10.27;;;3.17;;
3995;SDS011;2012;49.794;9.722;2024-01-27T02:12:10;6.03;;;2.90;;
3995;SDS011;2012;49.794;9.722;2024-01-27T02:14:37;5.90;;;2.53;;
3995;SDS011;2012;49.794;9.722;2024-01-27T02:17:04;12.60;;;3.00;;
3995;SDS011;2012;49.794;9.722;2024-01-27T02:19:32;8.27;;;2.70;;
3995;SDS011;2012;49.794;9.722;2024-01-27T02:21:59;4.20;;;2.57;;
3995;SDS011;2012;49.794;9.722;2024-01-27T02:24:26;12.20;;;3.53;;
3995;SDS011;2012;49.794;9.722;2024-01-27T02:26:55;7.27;;;3.00;;
3995;SDS011;2012;49.794;9.722;2024-01-27T02:29:22;12.47;;;4.00;;
3995;SDS011;2012;49.794;9.722;2024-01-27T02:31:49;10.30;;;3.77;;
3995;SDS011;2012;49.794;9.722;2024-01-27T02:34:16;12.70;;;4.17;;
3995;SDS011;2012;49.794;9.722;2024-01-27T02:36:43;7.47;;;3.50;;
3995;SDS011;2012;49.794;9.722;2024-01-27T02:39:10;20.60;;;3.43;;
3995;SDS011;2012;49.794;9.722;2024-01-27T02:41:37;7.77;;;2.97;;
3995;SDS011;2012;49.794;9.722;2024-01-27T02:44:05;8.10;;;3.03;;
3995;SDS011;2012;49.794;9.722;2024-01-27T02:46:32;11.23;;;3.63;;
3995;SDS011;2012;49.794;9.722;2024-01-27T02:48:59;9.60;;;3.17;;
3995;SDS011;2012;49.794;9.722;2024-01-27T02:51:26;7.33;;;3.27;;
3995;SDS011;2012;49.794;9.722;2024-01-27T02:53:53;7.23;;;3.43;;
3995;SDS011;2012;49.794;9.722;2024-01-27T02:56:20;10.30;;;3.40;;
3995;SDS011;2012;49.794;9.722;2024-01-27T02:58:47;12.03;;;2.83;;
3995;SDS011;2012;49.794;9.722;2024-01-27T03:01:14;10.57;;;3.30;;
3995;SDS011;2012;49.794;9.722;2024-01-27T03:03:41;6.90;;;2.60;;
3995;SDS011;2012;49.794;9.722;2024-01-27T03:06:08;14.07;;;4.50;;
3995;SDS011;2012;49.794;9.722;2024-01-27T03:08:35;5.50;;;2.97;;
3995;SDS011;2012;49.794;9.722;2024-01-27T03:11:02;21.70;;;3.40;;
3995;SDS011;2012;49.794;9.722;2024-01-27T03:13:29;16.90;;;4.30;;
3995;SDS011;2012;49.794;9.722;2024-01-27T03:15:56;12.43;;;3.70;;
3995;SDS011;2012;49.794;9.722;2024-01-27T03:18:23;10.63;;;2.83;;
3995;SDS011;2012;49.794;9.722;2024-01-27T03:20:51;9.00;;;2.97;;
3995;SDS011;2012;49.794;9.722;2024-01-27T03:23:18;7.43;;;2.63;;
3995;SDS011;2012;49.794;9.722;2024-01-27T03:25:45;10.03;;;2.93;;
3995;SDS011;2012;49.794;9.722;2024-01-27T03:28:12;18.80;;;3.07;;
3995;SDS011;2012;49.794;9.722;2024-01-27T03:30:39;4.83;;;2.57;;
3995;SDS011;2012;49.794;9.722;2024-01-27T03:33:06;10.30;;;2.40;;
3995;SDS011;2012;49.794;9.722;2024-01-27T03:35:37;4.40;;;2.40;;
3995;SDS011;2012;49.794;9.722;2024-01-27T03:38:05;4.77;;;2.73;;
3995;SDS011;2012;49.794;9.722;2024-01-27T03:40:32;11.37;;;2.60;;
3995;SDS011;2012;49.794;9.722;2024-01-27T03:42:59;13.03;;;3.93;;
3995;SDS011;2012;49.794;9.722;2024-01-27T03:45:25;10.53;;;3.60;;
3995;SDS011;2012;49.794;9.722;2024-01-27T03:47:53;7.13;;;2.80;;
3995;SDS011;2012;49.794;9.722;2024-01-27T03:50:20;11.13;;;3.20;;
3995;SDS011;2012;49.794;9.722;2024-01-27T03:52:47;8.27;;;3.07;;
3995;SDS011;2012;49.794;9.722;2024-01-27T03:55:14;10.37;;;3.57;;
3995;SDS011;2012;49.794;9.722;2024-01-27T03:57:41;11.73;;;2.70;;
3995;SDS011;2012;49.794;9.722;2024-01-27T04:00:08;10.67;;;2.87;;
3995;SDS011;2012;49.794;9.722;2024-01-27T04:02:38;12.30;;;3.10;;
3995;SDS011;2012;49.794;9.722;2024-01-27T04:05:05;10.70;;;3.80;;
3995;SDS011;2012;49.794;9.722;2024-01-27T04:07:32;8.03;;;3.50;;
3995;SDS011;2012;49.794;9.722;2024-01-27T04:10:01;11.33;;;3.20;;
3995;SDS011;2012;49.794;9.722;2024-01-27T04:12:29;14.53;;;3.30;;
3995;SDS011;2012;49.794;9.722;2024-01-27T04:14:56;15.00;;;3.57;;
3995;SDS011;2012;49.794;9.722;2024-01-27T04:17:26;4.80;;;2.30;;
3995;SDS011;2012;49.794;9.722;2024-01-27T04:19:52;5.57;;;2.60;;
3995;SDS011;2012;49.794;9.722;2024-01-27T04:22:20;5.90;;;2.87;;
3995;SDS011;2012;49.794;9.722;2024-01-27T04:24:46;6.00;;;2.50;;
3995;SDS011;2012;49.794;9.722;2024-01-27T04:27:13;8.13;;;2.50;;
3995;SDS011;2012;49.794;9.722;2024-01-27T04:29:40;18.80;;;3.27;;
3995;SDS011;2012;49.794;9.722;2024-01-27T04:32:08;10.43;;;2.80;;
3995;SDS011;2012;49.794;9.722;2024-01-27T04:34:35;7.23;;;2.80;;
3995;SDS011;2012;49.794;9.722;2024-01-27T04:37:01;5.43;;;2.97;;
3995;SDS011;2012;49.794;9.722;2024-01-27T04:39:28;8.20;;;3.03;;
3995;SDS011;2012;49.794;9.722;2024-01-27T04:41:56;5.43;;;2.27;;
3995;SDS011;2012;49.794;9.722;2024-01-27T04:44:23;9.47;;;2.53;;
3995;SDS011;2012;49.794;9.722;2024-01-27T04:46:50;6.60;;;2.97;;
3995;SDS011;2012;49.794;9.722;2024-01-27T04:49:17;8.37;;;2.97;;
3995;SDS011;2012;49.794;9.722;2024-01-27T04:51:44;9.27;;;3.73;;
3995;SDS011;2012;49.794;9.722;2024-01-27T04:54:11;11.30;;;3.80;;
3995;SDS011;2012;49.794;9.722;2024-01-27T04:56:38;6.70;;;3.80;;
3995;SDS011;2012;49.794;9.722;2024-01-27T04:59:05;22.03;;;5.10;;
3995;SDS011;2012;49.794;9.722;2024-01-27T05:01:32;9.80;;;4.27;;
3995;SDS011;2012;49.794;9.722;2024-01-27T05:03:59;11.17;;;5.07;;
3995;SDS011;2012;49.794;9.722;2024-01-27T05:06:26;9.97;;;4.30;;
3995;SDS011;2012;49.794;9.722;2024-01-27T05:08:53;12.07;;;4.27;;
3995;SDS011;2012;49.794;9.722;2024-01-27T05:11:29;12.50;;;5.03;;
3995;SDS011;2012;49.794;9.722;2024-01-27T05:13:58;12.23;;;5.47;;
3995;SDS011;2012;49.794;9.722;2024-01-27T05:16:27;15.70;;;5.47;;
3995;SDS011;2012;49.794;9.722;2024-01-27T05:18:54;9.87;;;4.40;;
3995;SDS011;2012;49.794;9.722;2024-01-27T05:21:21;14.73;;;5.60;;
3995;SDS011;2012;49.794;9.722;2024-01-27T05:23:48;17.50;;;6.57;;
3995;SDS011;2012;49.794;9.722;2024-01-27T05:26:15;14.83;;;6.47;;
3995;SDS011;2012;49.794;9.722;2024-01-27T05:28:42;15.60;;;5.13;;
3995;SDS011;2012;49.794;9.722;2024-01-27T05:31:09;16.53;;;7.57;;
3995;SDS011;2012;49.794;9.722;2024-01-27T05:33:36;16.90;;;6.77;;
3995;SDS011;2012;49.794;9.722;2024-01-27T05:36:03;24.30;;;10.87;;
3995;SDS011;2012;49.794;9.722;2024-01-27T05:38:31;19.17;;;7.40;;
3995;SDS011;2012;49.794;9.722;2024-01-27T05:41:00;12.73;;;5.70;;
3995;SDS011;2012;49.794;9.722;2024-01-27T05:43:27;14.70;;;5.27;;
3995;SDS011;2012;49.794;9.722;2024-01-27T05:45:54;17.00;;;5.30;;
3995;SDS011;2012;49.794;9.722;2024-01-27T05:48:21;12.90;;;4.77;;
3995;SDS011;2012;49.794;9.722;2024-01-27T05:50:56;16.90;;;5.90;;
3995;SDS011;2012;49.794;9.722;2024-01-27T05:53:26;15.90;;;5.03;;
3995;SDS011;2012;49.794;9.722;2024-01-27T05:55:54;19.03;;;6.30;;
3995;SDS011;2012;49.794;9.722;2024-01-27T05:58:21;17.80;;;6.00;;
3995;SDS011;2012;49.794;9.722;2024-01-27T06:00:48;10.70;;;4.63;;
3995;SDS011;2012;49.794;9.722;2024-01-27T06:03:15;9.37;;;5.20;;
3995;SDS011;2012;49.794;9.722;2024-01-27T06:05:43;9.37;;;5.60;;
3995;SDS011;2012;49.794;9.722;2024-01-27T06:08:10;9.57;;;4.83;;
3995;SDS011;2012;49.794;9.722;2024-01-27T06:10:37;11.10;;;4.63;;
3995;SDS011;2012;49.794;9.722;2024-01-27T06:13:04;14.27;;;5.47;;
3995;SDS011;2012;49.794;9.722;2024-01-27T06:15:31;10.03;;;4.53;;
3995;SDS011;2012;49.794;9.722;2024-01-27T06:17:59;16.13;;;5.13;;
3995;SDS011;2012;49.794;9.722;2024-01-27T06:20:26;8.73;;;4.83;;
3995;SDS011;2012;49.794;9.722;2024-01-27T06:22:53;7.00;;;4.27;;
3995;SDS011;2012;49.794;9.722;2024-01-27T06:25:20;13.60;;;4.77;;
3995;SDS011;2012;49.794;9.722;2024-01-27T06:27:47;11.33;;;4.73;;
3995;SDS011;2012;49.794;9.722;2024-01-27T06:30:15;7.20;;;4.10;;
3995;SDS011;2012;49.794;9.722;2024-01-27T06:32:42;15.07;;;5.77;;
3995;SDS011;2012;49.794;9.722;2024-01-27T06:35:09;13.33;;;4.73;;
3995;SDS011;2012;49.794;9.722;2024-01-27T06:37:36;8.63;;;4.30;;
3995;SDS011;2012;49.794;9.722;2024-01-27T06:40:04;14.40;;;4.67;;
3995;SDS011;2012;49.794;9.722;2024-01-27T06:42:31;7.30;;;3.70;;
3995;SDS011;2012;49.794;9.722;2024-01-27T06:44:58;12.30;;;3.40;;
3995;SDS011;2012;49.794;9.722;2024-01-27T06:47:25;14.73;;;3.77;;
3995;SDS011;2012;49.794;9.722;2024-01-27T06:49:52;7.03;;;3.03;;
3995;SDS011;2012;49.794;9.722;2024-01-27T06:52:19;6.70;;;3.73;;
3995;SDS011;2012;49.794;9.722;2024-01-27T06:54:45;7.87;;;3.40;;
3995;SDS011;2012;49.794;9.722;2024-01-27T06:57:19;7.23;;;4.00;;
3995;SDS011;2012;49.794;9.722;2024-01-27T06:59:53;11.73;;;4.40;;
3995;SDS011;2012;49.794;9.722;2024-01-27T07:02:22;8.93;;;4.50;;
3995;SDS011;2012;49.794;9.722;2024-01-27T07:04:50;12.53;;;4.97;;
3995;SDS011;2012;49.794;9.722;2024-01-27T07:07:18;15.23;;;4.87;;
3995;SDS011;2012;49.794;9.722;2024-01-27T07:09:50;10.27;;;4.33;;
3995;SDS011;2012;49.794;9.722;2024-01-27T07:12:17;10.50;;;5.00;;
3995;SDS011;2012;49.794;9.722;2024-01-27T07:14:43;9.20;;;4.40;;
3995;SDS011;2012;49.794;9.722;2024-01-27T07:17:10;12.33;;;4.20;;
3995;SDS011;2012;49.794;9.722;2024-01-27T07:19:38;8.27;;;4.57;;
3995;SDS011;2012;49.794;9.722;2024-01-27T07:22:06;10.30;;;4.80;;
3995;SDS011;2012;49.794;9.722;2024-01-27T07:24:33;8.67;;;4.77;;
3995;SDS011;2012;49.794;9.722;2024-01-27T07:27:00;20.07;;;5.90;;
3995;SDS011;2012;49.794;9.722;2024-01-27T07:29:27;9.70;;;4.37;;
3995;SDS011;2012;49.794;9.722;2024-01-27T07:31:56;9.67;;;5.10;;
3995;SDS011;2012;49.794;9.722;2024-01-27T07:34:24;8.50;;;4.57;;
3995;SDS011;2012;49.794;9.722;2024-01-27T07:36:51;7.50;;;4.83;;
3995;SDS011;2012;49.794;9.722;2024-01-27T07:39:18;12.77;;;4.80;;
3995;SDS011;2012;49.794;9.722;2024-01-27T07:41:44;9.57;;;4.80;;
3995;SDS011;2012;49.794;9.722;2024-01-27T07:44:13;10.63;;;5.20;;
3995;SDS011;2012;49.794;9.722;2024-01-27T07:46:41;13.63;;;5.37;;
3995;SDS011;2012;49.794;9.722;2024-01-27T07:49:08;14.77;;;5.03;;
3995;SDS011;2012;49.794;9.722;2024-01-27T07:51:35;12.30;;;5.23;;
3995;SDS011;2012;49.794;9.722;2024-01-27T07:54:02;8.57;;;4.40;;
3995;SDS011;2012;49.794;9.722;2024-01-27T07:56:29;14.97;;;5.20;;
3995;SDS011;2012;49.794;9.722;2024-01-27T07:58:56;16.30;;;5.70;;
3995;SDS011;2012;49.794;9.722;2024-01-27T08:01:23;12.70;;;5.80;;
3995;SDS011;2012;49.794;9.722;2024-01-27T08:03:50;16.73;;;6.40;;
3995;SDS011;2012;49.794;9.722;2024-01-27T08:06:18;12.37;;;5.43;;
3995;SDS011;2012;49.794;9.722;2024-01-27T08:08:54;8.23;;;4.40;;
3995;SDS011;2012;49.794;9.722;2024-01-27T08:11:21;6.97;;;4.33;;
3995;SDS011;2012;49.794;9.722;2024-01-27T08:13:48;9.73;;;4.80;;
3995;SDS011;2012;49.794;9.722;2024-01-27T08:16:15;15.97;;;4.70;;
3995;SDS011;2012;49.794;9.722;2024-01-27T08:18:42;10.97;;;5.13;;
3995;SDS011;2012;49.794;9.722;2024-01-27T08:21:11;11.57;;;3.80;;
3995;SDS011;2012;49.794;9.722;2024-01-27T08:23:41;17.07;;;4.43;;
3995;SDS011;2012;49.794;9.722;2024-01-27T08:26:08;13.27;;;5.27;;
3995;SDS011;2012;49.794;9.722;2024-01-27T08:28:34;19.63;;;5.90;;
3995;SDS011;2012;49.794;9.722;2024-01-27T08:31:01;12.20;;;4.67;;
3995;SDS011;2012;49.794;9.722;2024-01-27T08:33:28;26.50;;;5.23;;
3995;SDS011;2012;49.794;9.722;2024-01-27T08:35:55;6.40;;;3.30;;
3995;SDS011;2012;49.794;9.722;2024-01-27T08:38:23;13.70;;;4.23;;
3995;SDS011;2012;49.794;9.722;2024-01-27T08:40:49;15.50;;;4.87;;
3995;SDS011;2012;49.794;9.722;2024-01-27T08:43:16;13.20;;;4.47;;
3995;SDS011;2012;49.794;9.722;2024-01-27T08:45:43;19.63;;;5.57;;
3995;SDS011;2012;49.794;9.722;2024-01-27T08:48:10;10.87;;;5.80;;
3995;SDS011;2012;49.794;9.722;2024-01-27T08:50:38;23.90;;;7.10;;
3995;SDS011;2012;49.794;9.722;2024-01-27T08:53:05;21.23;;;7.97;;
3995;SDS011;2012;49.794;9.722;2024-01-27T08:55:32;18.83;;;7.83;;
3995;SDS011;2012;49.794;9.722;2024-01-27T08:57:59;19.00;;;8.40;;
3995;SDS011;2012;49.794;9.722;2024-01-27T09:00:26;17.87;;;9.30;;
3995;SDS011;2012;49.794;9.722;2024-01-27T09:02:53;27.20;;;9.50;;
3995;SDS011;2012;49.794;9.722;2024-01-27T09:05:21;27.07;;;8.83;;
3995;SDS011;2012;49.794;9.722;2024-01-27T09:07:48;26.80;;;8.60;;
3995;SDS011;2012;49.794;9.722;2024-01-27T09:10:15;17.43;;;7.47;;
3995;SDS011;2012;49.794;9.722;2024-01-27T09:12:42;21.50;;;6.67;;
3995;SDS011;2012;49.794;9.722;2024-01-27T09:15:10;24.90;;;6.47;;
3995;SDS011;2012;49.794;9.722;2024-01-27T09:17:37;13.77;;;5.57;;
3995;SDS011;2012;49.794;9.722;2024-01-27T09:20:04;18.27;;;4.90;;
3995;SDS011;2012;49.794;9.722;2024-01-27T09:22:32;16.03;;;5.83;;
3995;SDS011;2012;49.794;9.722;2024-01-27T09:24:59;17.23;;;5.60;;
3995;SDS011;2012;49.794;9.722;2024-01-27T09:27:26;24.33;;;5.07;;
3995;SDS011;2012;49.794;9.722;2024-01-27T09:29:53;13.30;;;4.63;;
3995;SDS011;2012;49.794;9.722;2024-01-27T09:32:20;19.93;;;4.40;;
3995;SDS011;2012;49.794;9.722;2024-01-27T09:34:47;10.83;;;3.20;;
3995;SDS011;2012;49.794;9.722;2024-01-27T09:37:14;8.73;;;3.80;;
3995;SDS011;2012;49.794;9.722;2024-01-27T09:39:41;16.03;;;3.87;;
3995;SDS011;2012;49.794;9.722;2024-01-27T09:42:07;10.97;;;3.97;;
3995;SDS011;2012;49.794;9.722;2024-01-27T09:44:43;11.57;;;3.20;;
3995;SDS011;2012;49.794;9.722;2024-01-27T09:47:13;14.40;;;3.83;;
3995;SDS011;2012;49.794;9.722;2024-01-27T09:49:40;17.80;;;4.03;;
3995;SDS011;2012;49.794;9.722;2024-01-27T09:52:08;9.93;;;3.33;;
3995;SDS011;2012;49.794;9.722;2024-01-27T09:54:35;18.60;;;3.97;;
3995;SDS011;2012;49.794;9.722;2024-01-27T09:57:03;50.30;;;3.60;;
3995;SDS011;2012;49.794;9.722;2024-01-27T09:59:30;20.70;;;3.70;;
3995;SDS011;2012;49.794;9.722;2024-01-27T10:01:59;14.67;;;3.23;;
3995;SDS011;2012;49.794;9.722;2024-01-27T10:04:28;11.93;;;2.97;;
3995;SDS011;2012;49.794;9.722;2024-01-27T10:06:56;9.20;;;3.07;;
3995;SDS011;2012;49.794;9.722;2024-01-27T10:09:24;10.03;;;3.10;;
3995;SDS011;2012;49.794;9.722;2024-01-27T10:11:51;6.60;;;2.80;;
3995;SDS011;2012;49.794;9.722;2024-01-27T10:14:19;9.73;;;2.40;;
3995;SDS011;2012;49.794;9.722;2024-01-27T10:16:45;12.77;;;3.13;;
3995;SDS011;2012;49.794;9.722;2024-01-27T10:19:17;14.30;;;2.83;;
3995;SDS011;2012;49.794;9.722;2024-01-27T10:21:45;13.20;;;2.70;;
3995;SDS011;2012;49.794;9.722;2024-01-27T10:24:13;12.40;;;2.40;;
3995;SDS011;2012;49.794;9.722;2024-01-27T10:26:40;14.43;;;3.10;;
3995;SDS011;2012;49.794;9.722;2024-01-27T10:29:08;21.20;;;4.00;;
3995;SDS011;2012;49.794;9.722;2024-01-27T10:31:36;14.23;;;2.90;;
3995;SDS011;2012;49.794;9.722;2024-01-27T10:34:03;13.10;;;3.07;;
3995;SDS011;2012;49.794;9.722;2024-01-27T10:36:38;21.33;;;2.70;;
3995;SDS011;2012;49.794;9.722;2024-01-27T10:41:47;10.03;;;2.73;;
3995;SDS011;2012;49.794;9.722;2024-01-27T10:44:15;10.73;;;2.93;;
3995;SDS011;2012;49.794;9.722;2024-01-27T10:46:44;13.83;;;3.13;;
3995;SDS011;2012;49.794;9.722;2024-01-27T10:49:15;18.67;;;5.53;;
3995;SDS011;2012;49.794;9.722;2024-01-27T10:54:24;12.77;;;2.90;;
3995;SDS011;2012;49.794;9.722;2024-01-27T10:56:53;11.83;;;2.20;;
3995;SDS011;2012;49.794;9.722;2024-01-27T10:59:22;13.47;;;2.67;;
3995;SDS011;2012;49.794;9.722;2024-01-27T11:01:52;15.93;;;2.53;;
3995;SDS011;2012;49.794;9.722;2024-01-27T11:04:20;14.50;;;2.97;;
3995;SDS011;2012;49.794;9.722;2024-01-27T11:06:48;18.43;;;3.30;;
3995;SDS011;2012;49.794;9.722;2024-01-27T11:09:15;13.03;;;2.60;;
3995;SDS011;2012;49.794;9.722;2024-01-27T11:11:45;14.30;;;3.00;;
3995;SDS011;2012;49.794;9.722;2024-01-27T11:14:12;15.73;;;2.60;;
3995;SDS011;2012;49.794;9.722;2024-01-27T11:16:39;17.10;;;3.00;;
3995;SDS011;2012;49.794;9.722;2024-01-27T11:19:11;17.83;;;2.13;;
3995;SDS011;2012;49.794;9.722;2024-01-27T11:21:39;10.77;;;2.63;;
3995;SDS011;2012;49.794;9.722;2024-01-27T11:24:13;17.10;;;2.87;;
3995;SDS011;2012;49.794;9.722;2024-01-27T11:26:44;14.53;;;2.73;;
3995;SDS011;2012;49.794;9.722;2024-01-27T11:29:11;23.47;;;2.67;;
3995;SDS011;2012;49.794;9.722;2024-01-27T11:31:46;12.80;;;2.63;;
3995;SDS011;2012;49.794;9.722;2024-01-27T11:34:14;18.50;;;2.20;;
3995;SDS011;2012;49.794;9.722;2024-01-27T11:36:46;14.83;;;2.50;;
3995;SDS011;2012;49.794;9.722;2024-01-27T11:39:29;16.73;;;3.00;;
3995;SDS011;2012;49.794;9.722;2024-01-27T11:42:06;14.93;;;2.40;;
3995;SDS011;2012;49.794;9.722;2024-01-27T11:44:40;11.13;;;1.97;;
3995;SDS011;2012;49.794;9.722;2024-01-27T11:47:14;10.60;;;2.17;;
3995;SDS011;2012;49.794;9.722;2024-01-27T11:49:42;18.70;;;2.60;;
3995;SDS011;2012;49.794;9.722;2024-01-27T11:52:11;8.07;;;2.57;;
3995;SDS011;2012;49.794;9.722;2024-01-27T11:54:38;13.23;;;2.10;;
3995;SDS011;2012;49.794;9.722;2024-01-27T11:57:05;17.50;;;2.60;;
3995;SDS011;2012;49.794;9.722;2024-01-27T11:59:33;12.30;;;2.63;;
3995;SDS011;2012;49.794;9.722;2024-01-27T12:02:01;14.57;;;2.33;;
3995;SDS011;2012;49.794;9.722;2024-01-27T12:04:28;18.93;;;3.23;;
3995;SDS011;2012;49.794;9.722;2024-01-27T12:06:55;10.93;;;2.37;;
3995;SDS011;2012;49.794;9.722;2024-01-27T12:09:22;15.63;;;3.17;;
3995;SDS011;2012;49.794;9.722;2024-01-27T12:11:49;18.93;;;3.07;;
3995;SDS011;2012;49.794;9.722;2024-01-27T12:14:16;12.93;;;2.30;;
3995;SDS011;2012;49.794;9.722;2024-01-27T12:16:44;13.53;;;2.40;;
3995;SDS011;2012;49.794;9.722;2024-01-27T12:19:11;18.93;;;2.93;;
3995;SDS011;2012;49.794;9.722;2024-01-27T12:21:38;14.17;;;2.20;;
3995;SDS011;2012;49.794;9.722;2024-01-27T12:24:05;15.57;;;3.10;;
3995;SDS011;2012;49.794;9.722;2024-01-27T12:26:47;13.80;;;2.60;;
3995;SDS011;2012;49.794;9.722;2024-01-27T12:29:14;15.23;;;3.10;;
3995;SDS011;2012;49.794;9.722;2024-01-27T12:31:40;9.87;;;1.93;;
3995;SDS011;2012;49.794;9.722;2024-01-27T12:34:07;12.23;;;2.50;;
3995;SDS011;2012;49.794;9.722;2024-01-27T12:36:39;7.07;;;1.80;;
3995;SDS011;2012;49.794;9.722;2024-01-27T12:39:10;9.00;;;2.40;;
3995;SDS011;2012;49.794;9.722;2024-01-27T12:41:37;9.47;;;2.00;;
3995;SDS011;2012;49.794;9.722;2024-01-27T12:44:05;6.27;;;2.07;;
3995;SDS011;2012;49.794;9.722;2024-01-27T12:46:32;10.67;;;2.00;;
3995;SDS011;2012;49.794;9.722;2024-01-27T12:48:59;12.53;;;2.27;;
3995;SDS011;2012;49.794;9.722;2024-01-27T12:51:27;13.37;;;2.70;;
3995;SDS011;2012;49.794;9.722;2024-01-27T12:53:54;14.70;;;2.87;;
3995;SDS011;2012;49.794;9.722;2024-01-27T12:56:20;11.47;;;2.40;;
3995;SDS011;2012;49.794;9.722;2024-01-27T12:58:47;14.47;;;2.60;;
3995;SDS011;2012;49.794;9.722;2024-01-27T13:01:14;14.00;;;3.00;;
3995;SDS011;2012;49.794;9.722;2024-01-27T13:03:42;11.50;;;2.30;;
3995;SDS011;2012;49.794;9.722;2024-01-27T13:06:11;10.17;;;2.10;;
3995;SDS011;2012;49.794;9.722;2024-01-27T13:08:39;9.53;;;3.33;;
3995;SDS011;2012;49.794;9.722;2024-01-27T13:11:08;11.03;;;2.60;;
3995;SDS011;2012;49.794;9.722;2024-01-27T13:13:35;10.73;;;2.17;;
3995;SDS011;2012;49.794;9.722;2024-01-27T13:16:01;14.53;;;2.67;;
3995;SDS011;2012;49.794;9.722;2024-01-27T13:18:28;13.63;;;2.53;;
3995;SDS011;2012;49.794;9.722;2024-01-27T13:20:55;10.77;;;2.00;;
3995;SDS011;2012;49.794;9.722;2024-01-27T13:23:22;13.00;;;2.00;;
3995;SDS011;2012;49.794;9.722;2024-01-27T13:25:49;11.63;;;2.43;;
3995;SDS011;2012;49.794;9.722;2024-01-27T13:28:36;11.63;;;1.93;;
3995;SDS011;2012;49.794;9.722;2024-01-27T13:31:03;15.63;;;2.23;;
3995;SDS011;2012;49.794;9.722;2024-01-27T13:33:31;10.63;;;2.50;;
3995;SDS011;2012;49.794;9.722;2024-01-27T13:35:59;13.33;;;2.23;;
3995;SDS011;2012;49.794;9.722;2024-01-27T13:38:26;20.60;;;2.60;;
3995;SDS011;2012;49.794;9.722;2024-01-27T13:40:53;10.03;;;2.33;;
3995;SDS011;2012;49.794;9.722;2024-01-27T13:43:20;14.83;;;2.60;;
3995;SDS011;2012;49.794;9.722;2024-01-27T13:45:47;8.13;;;2.90;;
3995;SDS011;2012;49.794;9.722;2024-01-27T13:48:14;11.63;;;2.20;;
3995;SDS011;2012;49.794;9.722;2024-01-27T13:50:42;14.17;;;2.03;;
3995;SDS011;2012;49.794;9.722;2024-01-27T13:53:09;9.47;;;1.87;;
3995;SDS011;2012;49.794;9.722;2024-01-27T13:55:36;11.73;;;2.27;;
3995;SDS011;2012;49.794;9.722;2024-01-27T13:58:03;14.07;;;2.50;;
3995;SDS011;2012;49.794;9.722;2024-01-27T14:00:31;9.47;;;1.97;;
3995;SDS011;2012;49.794;9.722;2024-01-27T14:03:01;9.13;;;2.17;;
3995;SDS011;2012;49.794;9.722;2024-01-27T14:05:28;15.20;;;3.20;;
3995;SDS011;2012;49.794;9.722;2024-01-27T14:07:56;10.10;;;2.80;;
3995;SDS011;2012;49.794;9.722;2024-01-27T14:10:23;16.57;;;2.73;;
3995;SDS011;2012;49.794;9.722;2024-01-27T14:12:51;11.43;;;2.40;;
3995;SDS011;2012;49.794;9.722;2024-01-27T14:15:18;15.43;;;2.93;;
3995;SDS011;2012;49.794;9.722;2024-01-27T14:17:47;9.87;;;1.60;;
3995;SDS011;2012;49.794;9.722;2024-01-27T14:20:14;10.23;;;2.40;;
3995;SDS011;2012;49.794;9.722;2024-01-27T14:22:42;4.97;;;1.47;;
3995;SDS011;2012;49.794;9.722;2024-01-27T14:25:10;9.50;;;3.00;;
3995;SDS011;2012;49.794;9.722;2024-01-27T14:27:37;16.33;;;1.97;;
3995;SDS011;2012;49.794;9.722;2024-01-27T14:30:04;8.30;;;2.90;;
3995;SDS011;2012;49.794;9.722;2024-01-27T14:32:31;11.13;;;2.00;;
3995;SDS011;2012;49.794;9.722;2024-01-27T14:34:58;7.33;;;2.27;;
3995;SDS011;2012;49.794;9.722;2024-01-27T14:37:25;14.70;;;2.20;;
3995;SDS011;2012;49.794;9.722;2024-01-27T14:39:53;13.37;;;2.27;;
3995;SDS011;2012;49.794;9.722;2024-01-27T14:42:20;9.20;;;2.33;;
3995;SDS011;2012;49.794;9.722;2024-01-27T14:44:47;11.97;;;1.93;;
3995;SDS011;2012;49.794;9.722;2024-01-27T14:47:16;6.97;;;1.77;;
3995;SDS011;2012;49.794;9.722;2024-01-27T14:49:42;4.57;;;1.43;;
3995;SDS011;2012;49.794;9.722;2024-01-27T14:52:12;10.13;;;2.27;;
3995;SDS011;2012;49.794;9.722;2024-01-27T14:54:39;11.67;;;2.03;;
3995;SDS011;2012;49.794;9.722;2024-01-27T14:57:06;8.37;;;1.77;;
3995;SDS011;2012;49.794;9.722;2024-01-27T14:59:36;5.27;;;1.77;;
3995;SDS011;2012;49.794;9.722;2024-01-27T15:02:06;7.97;;;1.73;;
3995;SDS011;2012;49.794;9.722;2024-01-27T15:04:34;4.63;;;1.60;;
3995;SDS011;2012;49.794;9.722;2024-01-27T15:07:01;9.90;;;1.50;;
3995;SDS011;2012;49.794;9.722;2024-01-27T15:09:28;7.80;;;1.80;;
3995;SDS011;2012;49.794;9.722;2024-01-27T15:11:55;6.30;;;1.50;;
3995;SDS011;2012;49.794;9.722;2024-01-27T15:14:22;10.03;;;2.10;;
3995;SDS011;2012;49.794;9.722;2024-01-27T15:16:49;18.33;;;3.57;;